RA07870 URWW-UBBB
Flight info
| Callsign | RA07870 |
|---|---|
| Flight time | 2h 14m |
| Altitude | 23000 |
| Route | NOKLI2E NOKLI N72 BISNA/N0274F230 N72 NOBVA |
| Aircraft | PC12/L-SDFGRWY/S |
Departure
| Time | 2026-04-22 17:44 |
|---|---|
| Airport | Volgograd International Airport (URWW) |
Arrival
| Time | 2026-04-22 19:58 |
|---|---|
| Airport | Heydar Aliyev International Airport (UBBB) |
| Time | Latitude | Longitude | Altitude | Speed | Heading |
|---|---|---|---|---|---|
| 2026-04-22 16:47 | 48.79123 | 44.35661 | 476 ft | 0 kts | 339° |
| 2026-04-22 17:30 | 48.79119 | 44.35663 | 472 ft | 3 kts | 340° |
| 2026-04-22 17:30 | 48.79094 | 44.35676 | 478 ft | 4 kts | 342° |
| 2026-04-22 17:31 | 48.79072 | 44.35690 | 475 ft | 4 kts | 311° |
| 2026-04-22 17:31 | 48.79071 | 44.35715 | 475 ft | 4 kts | 255° |
| 2026-04-22 17:31 | 48.79079 | 44.35752 | 478 ft | 4 kts | 249° |
| 2026-04-22 17:31 | 48.79088 | 44.35790 | 475 ft | 4 kts | 249° |
| 2026-04-22 17:32 | 48.79090 | 44.35797 | 476 ft | 0 kts | 249° |
| 2026-04-22 17:37 | 48.79090 | 44.35795 | 476 ft | 2 kts | 250° |
| 2026-04-22 17:37 | 48.79071 | 44.35724 | 478 ft | 13 kts | 249° |
| 2026-04-22 17:38 | 48.79039 | 44.35595 | 475 ft | 10 kts | 249° |
| 2026-04-22 17:38 | 48.79015 | 44.35497 | 478 ft | 10 kts | 250° |
| 2026-04-22 17:38 | 48.78993 | 44.35407 | 476 ft | 9 kts | 250° |
| 2026-04-22 17:38 | 48.78972 | 44.35325 | 477 ft | 10 kts | 249° |
| 2026-04-22 17:39 | 48.78935 | 44.35174 | 479 ft | 16 kts | 249° |
| 2026-04-22 17:39 | 48.78876 | 44.35110 | 477 ft | 12 kts | 161° |
| 2026-04-22 17:39 | 48.78723 | 44.35186 | 480 ft | 12 kts | 163° |
| 2026-04-22 17:40 | 48.78700 | 44.35198 | 478 ft | 0 kts | 161° |
| 2026-04-22 17:40 | 48.78699 | 44.35198 | 478 ft | 0 kts | 161° |
| 2026-04-22 17:41 | 48.78700 | 44.35198 | 478 ft | 0 kts | 161° |
| 2026-04-22 17:42 | 48.78699 | 44.35198 | 478 ft | 0 kts | 161° |
| 2026-04-22 17:42 | 48.78696 | 44.35200 | 481 ft | 3 kts | 161° |
| 2026-04-22 17:42 | 48.78639 | 44.35228 | 481 ft | 14 kts | 161° |
| 2026-04-22 17:42 | 48.78558 | 44.35227 | 481 ft | 16 kts | 235° |
| 2026-04-22 17:43 | 48.78543 | 44.35182 | 477 ft | 0 kts | 243° |
| 2026-04-22 17:43 | 48.78502 | 44.35056 | 477 ft | 39 kts | 245° |
| 2026-04-22 17:43 | 48.78330 | 44.34419 | 490 ft | 84 kts | 247° |
| 2026-04-22 17:44 | 48.77985 | 44.33623 | 763 ft | 90 kts | 247° |
| 2026-04-22 17:44 | 48.77728 | 44.32734 | 1134 ft | 95 kts | 250° |
| 2026-04-22 17:44 | 48.77447 | 44.31795 | 1522 ft | 100 kts | 251° |
| 2026-04-22 17:44 | 48.77152 | 44.30838 | 1907 ft | 103 kts | 251° |
| 2026-04-22 17:45 | 48.76839 | 44.29832 | 2309 ft | 108 kts | 251° |
| 2026-04-22 17:45 | 48.76509 | 44.28782 | 2705 ft | 113 kts | 251° |
| 2026-04-22 17:45 | 48.76158 | 44.27668 | 3103 ft | 121 kts | 250° |
| 2026-04-22 17:45 | 48.75781 | 44.26480 | 3499 ft | 129 kts | 250° |
| 2026-04-22 17:46 | 48.75182 | 44.25412 | 3896 ft | 145 kts | 218° |
| 2026-04-22 17:46 | 48.74135 | 44.25118 | 4273 ft | 167 kts | 176° |
| 2026-04-22 17:46 | 48.73079 | 44.25996 | 4677 ft | 180 kts | 144° |
| 2026-04-22 17:46 | 48.72110 | 44.27252 | 5068 ft | 186 kts | 143° |
| 2026-04-22 17:47 | 48.71097 | 44.28534 | 5465 ft | 193 kts | 144° |
| 2026-04-22 17:47 | 48.70039 | 44.29832 | 5868 ft | 198 kts | 145° |
| 2026-04-22 17:47 | 48.68954 | 44.31158 | 6270 ft | 203 kts | 145° |
| 2026-04-22 17:47 | 48.67846 | 44.32517 | 6652 ft | 207 kts | 144° |
| 2026-04-22 17:48 | 48.67102 | 44.33430 | 6899 ft | 209 kts | 145° |
| 2026-04-22 17:48 | 48.65581 | 44.35295 | 7406 ft | 212 kts | 145° |
| 2026-04-22 17:48 | 48.64432 | 44.36702 | 7809 ft | 214 kts | 145° |
| 2026-04-22 17:48 | 48.63267 | 44.38128 | 8204 ft | 216 kts | 145° |
| 2026-04-22 17:49 | 48.62097 | 44.39560 | 8606 ft | 217 kts | 145° |
| 2026-04-22 17:49 | 48.60938 | 44.40978 | 9001 ft | 217 kts | 145° |
| 2026-04-22 17:49 | 48.59763 | 44.42413 | 9412 ft | 217 kts | 146° |
| 2026-04-22 17:49 | 48.58592 | 44.43843 | 9816 ft | 216 kts | 146° |
| 2026-04-22 17:50 | 48.57422 | 44.45271 | 10185 ft | 216 kts | 146° |
| 2026-04-22 17:50 | 48.56251 | 44.46700 | 10558 ft | 216 kts | 146° |
| 2026-04-22 17:50 | 48.55082 | 44.48125 | 10941 ft | 215 kts | 146° |
| 2026-04-22 17:50 | 48.53913 | 44.49548 | 11323 ft | 215 kts | 147° |
| 2026-04-22 17:51 | 48.52763 | 44.50948 | 11706 ft | 215 kts | 147° |
| 2026-04-22 17:51 | 48.51600 | 44.52364 | 12099 ft | 215 kts | 147° |
| 2026-04-22 17:51 | 48.50436 | 44.53779 | 12498 ft | 215 kts | 148° |
| 2026-04-22 17:51 | 48.49264 | 44.55203 | 12901 ft | 216 kts | 148° |
| 2026-04-22 17:52 | 48.48082 | 44.56638 | 13318 ft | 217 kts | 148° |
| 2026-04-22 17:52 | 48.46916 | 44.58054 | 13713 ft | 218 kts | 149° |
| 2026-04-22 17:52 | 48.45734 | 44.59487 | 14083 ft | 218 kts | 149° |
| 2026-04-22 17:52 | 48.44548 | 44.60926 | 14448 ft | 219 kts | 149° |
| 2026-04-22 17:53 | 48.43352 | 44.62374 | 14825 ft | 220 kts | 149° |
| 2026-04-22 17:53 | 48.42154 | 44.63824 | 15199 ft | 221 kts | 150° |
| 2026-04-22 17:53 | 48.40950 | 44.65281 | 15586 ft | 222 kts | 150° |
| 2026-04-22 17:53 | 48.39742 | 44.66742 | 15970 ft | 223 kts | 150° |
| 2026-04-22 17:54 | 48.38530 | 44.68208 | 16362 ft | 223 kts | 150° |
| 2026-04-22 17:54 | 48.37315 | 44.69676 | 16756 ft | 224 kts | 151° |
| 2026-04-22 17:54 | 48.36096 | 44.71146 | 17160 ft | 225 kts | 151° |
| 2026-04-22 17:54 | 48.34889 | 44.72603 | 17567 ft | 225 kts | 151° |
| 2026-04-22 17:55 | 48.34076 | 44.73583 | 17839 ft | 226 kts | 152° |
| 2026-04-22 17:55 | 48.32432 | 44.75564 | 18356 ft | 227 kts | 152° |
| 2026-04-22 17:55 | 48.31192 | 44.77055 | 18724 ft | 229 kts | 152° |
| 2026-04-22 17:55 | 48.29945 | 44.78555 | 19090 ft | 230 kts | 152° |
| 2026-04-22 17:56 | 48.28693 | 44.80061 | 19461 ft | 232 kts | 153° |
| 2026-04-22 17:56 | 48.27431 | 44.81578 | 19836 ft | 233 kts | 153° |
| 2026-04-22 17:56 | 48.26159 | 44.83105 | 20228 ft | 234 kts | 153° |
| 2026-04-22 17:56 | 48.24900 | 44.84616 | 20607 ft | 235 kts | 154° |
| 2026-04-22 17:57 | 48.23618 | 44.86154 | 20987 ft | 236 kts | 154° |
| 2026-04-22 17:57 | 48.22334 | 44.87693 | 21382 ft | 237 kts | 154° |
| 2026-04-22 17:57 | 48.21040 | 44.89243 | 21789 ft | 238 kts | 155° |
| 2026-04-22 17:57 | 48.19737 | 44.90802 | 22198 ft | 240 kts | 155° |
| 2026-04-22 17:58 | 48.18427 | 44.92368 | 22606 ft | 241 kts | 155° |
| 2026-04-22 17:58 | 48.17101 | 44.93947 | 22858 ft | 250 kts | 155° |
| 2026-04-22 17:58 | 48.15713 | 44.95586 | 22866 ft | 261 kts | 155° |
| 2026-04-22 17:58 | 48.14284 | 44.97299 | 22863 ft | 265 kts | 154° |
| 2026-04-22 17:59 | 48.12837 | 44.99035 | 22863 ft | 268 kts | 155° |
| 2026-04-22 17:59 | 48.11372 | 45.00782 | 22870 ft | 270 kts | 155° |
| 2026-04-22 17:59 | 48.09896 | 45.02537 | 22866 ft | 272 kts | 155° |
| 2026-04-22 17:59 | 48.08409 | 45.04307 | 22866 ft | 274 kts | 155° |
| 2026-04-22 18:00 | 48.07415 | 45.05489 | 22862 ft | 275 kts | 155° |
| 2026-04-22 18:00 | 48.05407 | 45.07877 | 22862 ft | 276 kts | 155° |
| 2026-04-22 18:00 | 48.03916 | 45.09648 | 22864 ft | 277 kts | 155° |
| 2026-04-22 18:00 | 48.02390 | 45.11382 | 22861 ft | 269 kts | 162° |
| 2026-04-22 18:01 | 48.00767 | 45.12652 | 22865 ft | 262 kts | 169° |
| 2026-04-22 18:01 | 47.99130 | 45.13870 | 22872 ft | 263 kts | 169° |
| 2026-04-22 18:01 | 47.97488 | 45.15104 | 22868 ft | 265 kts | 168° |
| 2026-04-22 18:01 | 47.95843 | 45.16343 | 22863 ft | 265 kts | 169° |
| 2026-04-22 18:02 | 47.94189 | 45.17586 | 22869 ft | 266 kts | 169° |
| 2026-04-22 18:02 | 47.92536 | 45.18826 | 22862 ft | 266 kts | 169° |
| 2026-04-22 18:02 | 47.90876 | 45.20070 | 22866 ft | 267 kts | 169° |
| 2026-04-22 18:02 | 47.89214 | 45.21315 | 22872 ft | 267 kts | 169° |
| 2026-04-22 18:03 | 47.87552 | 45.22559 | 22870 ft | 268 kts | 169° |
| 2026-04-22 18:03 | 47.85890 | 45.23803 | 22876 ft | 268 kts | 169° |
| 2026-04-22 18:03 | 47.84224 | 45.25047 | 22872 ft | 268 kts | 169° |
| 2026-04-22 18:03 | 47.82554 | 45.26295 | 22873 ft | 268 kts | 170° |
| 2026-04-22 18:04 | 47.80907 | 45.27524 | 22877 ft | 269 kts | 170° |
| 2026-04-22 18:04 | 47.79234 | 45.28772 | 22880 ft | 269 kts | 170° |
| 2026-04-22 18:04 | 47.77562 | 45.30018 | 22881 ft | 269 kts | 170° |
| 2026-04-22 18:04 | 47.75890 | 45.31263 | 22879 ft | 269 kts | 170° |
| 2026-04-22 18:05 | 47.74215 | 45.32509 | 22876 ft | 269 kts | 170° |
| 2026-04-22 18:05 | 47.72545 | 45.33751 | 22881 ft | 269 kts | 170° |
| 2026-04-22 18:05 | 47.70872 | 45.34995 | 22883 ft | 269 kts | 170° |
| 2026-04-22 18:05 | 47.69200 | 45.36236 | 22882 ft | 269 kts | 170° |
| 2026-04-22 18:06 | 47.67529 | 45.37477 | 22884 ft | 269 kts | 170° |
| 2026-04-22 18:06 | 47.65855 | 45.38718 | 22882 ft | 268 kts | 170° |
| 2026-04-22 18:06 | 47.64183 | 45.39957 | 22886 ft | 268 kts | 170° |
| 2026-04-22 18:06 | 47.62517 | 45.41191 | 22885 ft | 268 kts | 170° |
| 2026-04-22 18:07 | 47.61407 | 45.42012 | 22886 ft | 268 kts | 170° |
| 2026-04-22 18:07 | 47.59200 | 45.43644 | 22883 ft | 267 kts | 170° |
| 2026-04-22 18:07 | 47.57535 | 45.44875 | 22887 ft | 267 kts | 170° |
| 2026-04-22 18:07 | 47.55871 | 45.46103 | 22889 ft | 267 kts | 171° |
| 2026-04-22 18:08 | 47.54212 | 45.47328 | 22887 ft | 267 kts | 171° |
| 2026-04-22 18:08 | 47.52545 | 45.48557 | 22892 ft | 266 kts | 171° |
| 2026-04-22 18:08 | 47.50889 | 45.49777 | 22895 ft | 266 kts | 170° |
| 2026-04-22 18:08 | 47.49233 | 45.50996 | 22890 ft | 265 kts | 171° |
| 2026-04-22 18:09 | 47.47581 | 45.52212 | 22898 ft | 265 kts | 171° |
| 2026-04-22 18:09 | 47.45932 | 45.53424 | 22892 ft | 265 kts | 171° |
| 2026-04-22 18:09 | 47.44285 | 45.54634 | 22896 ft | 264 kts | 171° |
| 2026-04-22 18:09 | 47.42640 | 45.55842 | 22897 ft | 264 kts | 171° |
| 2026-04-22 18:10 | 47.40998 | 45.57047 | 22897 ft | 263 kts | 171° |
| 2026-04-22 18:10 | 47.39358 | 45.58248 | 22902 ft | 263 kts | 171° |
| 2026-04-22 18:10 | 47.37724 | 45.59446 | 22900 ft | 262 kts | 171° |
| 2026-04-22 18:10 | 47.36091 | 45.60642 | 22904 ft | 262 kts | 171° |
| 2026-04-22 18:11 | 47.34462 | 45.61833 | 22902 ft | 261 kts | 171° |
| 2026-04-22 18:11 | 47.32857 | 45.63007 | 22905 ft | 260 kts | 171° |
| 2026-04-22 18:11 | 47.31235 | 45.64192 | 22903 ft | 260 kts | 171° |
| 2026-04-22 18:11 | 47.29612 | 45.65376 | 22909 ft | 260 kts | 171° |
| 2026-04-22 18:12 | 47.27991 | 45.66559 | 22907 ft | 260 kts | 171° |
| 2026-04-22 18:12 | 47.26372 | 45.67740 | 22906 ft | 259 kts | 170° |
| 2026-04-22 18:12 | 47.25300 | 45.68521 | 22911 ft | 259 kts | 170° |
| 2026-04-22 18:12 | 47.23135 | 45.70097 | 22907 ft | 259 kts | 170° |
| 2026-04-22 18:13 | 47.21541 | 45.71262 | 22909 ft | 259 kts | 170° |
| 2026-04-22 18:13 | 47.19926 | 45.72445 | 22911 ft | 259 kts | 170° |
| 2026-04-22 18:13 | 47.18306 | 45.73629 | 22912 ft | 259 kts | 170° |
| 2026-04-22 18:13 | 47.16691 | 45.74807 | 22914 ft | 259 kts | 170° |
| 2026-04-22 18:14 | 47.15076 | 45.75985 | 22915 ft | 259 kts | 170° |
| 2026-04-22 18:14 | 47.13459 | 45.77164 | 22914 ft | 260 kts | 170° |
| 2026-04-22 18:14 | 47.11840 | 45.78343 | 22915 ft | 260 kts | 170° |
| 2026-04-22 18:14 | 47.10221 | 45.79522 | 22916 ft | 260 kts | 170° |
| 2026-04-22 18:15 | 47.08600 | 45.80702 | 22918 ft | 260 kts | 170° |
| 2026-04-22 18:15 | 47.06979 | 45.81880 | 22913 ft | 260 kts | 169° |
| 2026-04-22 18:15 | 47.05357 | 45.83058 | 22916 ft | 260 kts | 170° |
| 2026-04-22 18:15 | 47.03736 | 45.84236 | 22915 ft | 260 kts | 170° |
| 2026-04-22 18:16 | 47.02111 | 45.85415 | 22917 ft | 260 kts | 169° |
| 2026-04-22 18:16 | 47.00511 | 45.86575 | 22919 ft | 260 kts | 169° |
| 2026-04-22 18:16 | 46.98888 | 45.87751 | 22918 ft | 260 kts | 169° |
| 2026-04-22 18:16 | 46.97264 | 45.88927 | 22919 ft | 260 kts | 169° |
| 2026-04-22 18:17 | 46.95640 | 45.90102 | 22919 ft | 261 kts | 169° |
| 2026-04-22 18:17 | 46.94012 | 45.91280 | 22919 ft | 261 kts | 169° |
| 2026-04-22 18:17 | 46.92385 | 45.92455 | 22918 ft | 261 kts | 169° |
| 2026-04-22 18:17 | 46.90757 | 45.93630 | 22918 ft | 261 kts | 169° |
| 2026-04-22 18:18 | 46.89128 | 45.94805 | 22920 ft | 261 kts | 169° |
| 2026-04-22 18:18 | 46.87497 | 45.95982 | 22923 ft | 261 kts | 169° |
| 2026-04-22 18:18 | 46.85867 | 45.97157 | 22922 ft | 261 kts | 169° |
| 2026-04-22 18:18 | 46.84235 | 45.98332 | 22922 ft | 261 kts | 169° |
| 2026-04-22 18:19 | 46.82624 | 45.99492 | 22925 ft | 261 kts | 169° |
| 2026-04-22 18:19 | 46.80995 | 46.00663 | 22922 ft | 261 kts | 169° |
| 2026-04-22 18:19 | 46.79362 | 46.01837 | 22923 ft | 261 kts | 169° |
| 2026-04-22 18:19 | 46.77731 | 46.03008 | 22926 ft | 261 kts | 169° |
| 2026-04-22 18:20 | 46.76099 | 46.04179 | 22929 ft | 261 kts | 169° |
| 2026-04-22 18:20 | 46.74466 | 46.05351 | 22927 ft | 261 kts | 169° |
| 2026-04-22 18:20 | 46.73386 | 46.06125 | 22927 ft | 261 kts | 169° |
| 2026-04-22 18:20 | 46.71755 | 46.07293 | 22928 ft | 261 kts | 169° |
| 2026-04-22 18:21 | 46.70121 | 46.08463 | 22925 ft | 261 kts | 169° |
| 2026-04-22 18:21 | 46.68489 | 46.09630 | 22928 ft | 261 kts | 169° |
| 2026-04-22 18:21 | 46.66858 | 46.10797 | 22931 ft | 261 kts | 169° |
| 2026-04-22 18:21 | 46.65225 | 46.11963 | 22929 ft | 261 kts | 169° |
| 2026-04-22 18:22 | 46.63591 | 46.13131 | 22934 ft | 261 kts | 169° |
| 2026-04-22 18:22 | 46.61951 | 46.14300 | 22931 ft | 261 kts | 169° |
| 2026-04-22 18:22 | 46.60319 | 46.15464 | 22933 ft | 261 kts | 169° |
| 2026-04-22 18:22 | 46.58688 | 46.16627 | 22929 ft | 261 kts | 169° |
| 2026-04-22 18:23 | 46.57070 | 46.17778 | 22935 ft | 261 kts | 169° |
| 2026-04-22 18:23 | 46.55433 | 46.18943 | 22936 ft | 261 kts | 169° |
| 2026-04-22 18:23 | 46.53800 | 46.20104 | 22933 ft | 261 kts | 169° |
| 2026-04-22 18:24 | 46.50532 | 46.22426 | 22936 ft | 261 kts | 169° |
| 2026-04-22 18:24 | 46.48893 | 46.23589 | 22927 ft | 261 kts | 169° |
| 2026-04-22 18:24 | 46.45621 | 46.25909 | 22937 ft | 262 kts | 169° |
| 2026-04-22 18:25 | 46.44006 | 46.27053 | 22933 ft | 262 kts | 169° |
| 2026-04-22 18:25 | 46.42370 | 46.28211 | 22936 ft | 262 kts | 169° |
| 2026-04-22 18:25 | 46.40731 | 46.29370 | 22937 ft | 262 kts | 169° |
| 2026-04-22 18:26 | 46.37448 | 46.31690 | 22938 ft | 262 kts | 169° |
| 2026-04-22 18:26 | 46.35809 | 46.32847 | 22941 ft | 262 kts | 169° |
| 2026-04-22 18:26 | 46.34170 | 46.34003 | 22936 ft | 262 kts | 169° |
| 2026-04-22 18:26 | 46.32551 | 46.35144 | 22945 ft | 262 kts | 169° |
| 2026-04-22 18:27 | 46.30913 | 46.36298 | 22940 ft | 262 kts | 169° |
| 2026-04-22 18:27 | 46.29267 | 46.37456 | 22944 ft | 262 kts | 169° |
| 2026-04-22 18:27 | 46.27626 | 46.38611 | 22939 ft | 262 kts | 169° |
| 2026-04-22 18:27 | 46.25985 | 46.39765 | 22941 ft | 262 kts | 169° |
| 2026-04-22 18:28 | 46.24341 | 46.40920 | 22942 ft | 263 kts | 169° |
| 2026-04-22 18:28 | 46.22698 | 46.42074 | 22947 ft | 263 kts | 169° |
| 2026-04-22 18:28 | 46.21054 | 46.43227 | 22944 ft | 263 kts | 169° |
| 2026-04-22 18:28 | 46.19410 | 46.44380 | 22943 ft | 263 kts | 169° |
| 2026-04-22 18:29 | 46.17763 | 46.45534 | 22946 ft | 263 kts | 169° |
| 2026-04-22 18:29 | 46.16118 | 46.46686 | 22946 ft | 263 kts | 168° |
| 2026-04-22 18:29 | 46.14471 | 46.47838 | 22944 ft | 263 kts | 168° |
| 2026-04-22 18:29 | 46.12825 | 46.48989 | 22948 ft | 263 kts | 168° |
| 2026-04-22 18:30 | 46.11178 | 46.50141 | 22949 ft | 263 kts | 168° |
| 2026-04-22 18:30 | 46.07878 | 46.52447 | 22946 ft | 263 kts | 168° |
| 2026-04-22 18:30 | 46.06230 | 46.53601 | 22948 ft | 263 kts | 168° |
| 2026-04-22 18:31 | 46.04580 | 46.54756 | 22944 ft | 263 kts | 168° |
| 2026-04-22 18:31 | 46.02956 | 46.55890 | 22951 ft | 263 kts | 168° |
| 2026-04-22 18:31 | 46.01312 | 46.57037 | 22947 ft | 263 kts | 168° |
| 2026-04-22 18:31 | 45.99665 | 46.58186 | 22949 ft | 263 kts | 168° |
| 2026-04-22 18:32 | 45.98013 | 46.59338 | 22951 ft | 263 kts | 168° |
| 2026-04-22 18:32 | 45.96364 | 46.60487 | 22951 ft | 264 kts | 168° |
| 2026-04-22 18:32 | 45.94710 | 46.61639 | 22950 ft | 264 kts | 168° |
| 2026-04-22 18:32 | 45.93061 | 46.62790 | 22950 ft | 264 kts | 168° |
| 2026-04-22 18:33 | 45.91413 | 46.63940 | 22950 ft | 264 kts | 168° |
| 2026-04-22 18:33 | 45.89759 | 46.65093 | 22952 ft | 263 kts | 168° |
| 2026-04-22 18:33 | 45.88110 | 46.66241 | 22952 ft | 263 kts | 168° |
| 2026-04-22 18:33 | 45.86481 | 46.67375 | 22952 ft | 263 kts | 168° |
| 2026-04-22 18:34 | 45.84825 | 46.68527 | 22951 ft | 263 kts | 168° |
| 2026-04-22 18:34 | 45.83175 | 46.69673 | 22952 ft | 263 kts | 168° |
| 2026-04-22 18:34 | 45.81526 | 46.70819 | 22952 ft | 263 kts | 168° |
| 2026-04-22 18:34 | 45.79876 | 46.71964 | 22950 ft | 263 kts | 168° |
| 2026-04-22 18:35 | 45.78225 | 46.73110 | 22950 ft | 263 kts | 168° |
| 2026-04-22 18:35 | 45.76575 | 46.74253 | 22956 ft | 263 kts | 168° |
| 2026-04-22 18:35 | 45.74919 | 46.75401 | 22949 ft | 263 kts | 168° |
| 2026-04-22 18:35 | 45.73292 | 46.76527 | 22953 ft | 263 kts | 168° |
| 2026-04-22 18:36 | 45.71618 | 46.77685 | 22956 ft | 263 kts | 168° |
| 2026-04-22 18:36 | 45.69993 | 46.78809 | 22955 ft | 263 kts | 168° |
| 2026-04-22 18:36 | 45.68338 | 46.79952 | 22951 ft | 263 kts | 168° |
| 2026-04-22 18:36 | 45.66687 | 46.81093 | 22951 ft | 264 kts | 168° |
| 2026-04-22 18:37 | 45.65033 | 46.82235 | 22953 ft | 264 kts | 167° |
| 2026-04-22 18:37 | 45.63380 | 46.83375 | 22955 ft | 264 kts | 167° |
| 2026-04-22 18:37 | 45.61727 | 46.84514 | 22955 ft | 264 kts | 168° |
| 2026-04-22 18:37 | 45.60073 | 46.85653 | 22958 ft | 264 kts | 167° |
| 2026-04-22 18:38 | 45.58420 | 46.86791 | 22953 ft | 264 kts | 167° |
| 2026-04-22 18:38 | 45.56790 | 46.87913 | 22953 ft | 264 kts | 167° |
| 2026-04-22 18:38 | 45.55134 | 46.89051 | 22952 ft | 264 kts | 167° |
| 2026-04-22 18:39 | 45.51827 | 46.91323 | 22952 ft | 264 kts | 167° |
| 2026-04-22 18:39 | 45.50173 | 46.92459 | 22952 ft | 264 kts | 167° |
| 2026-04-22 18:39 | 45.48523 | 46.93594 | 22956 ft | 264 kts | 167° |
| 2026-04-22 18:39 | 45.46869 | 46.94731 | 22960 ft | 264 kts | 167° |
| 2026-04-22 18:40 | 45.45217 | 46.95866 | 22955 ft | 264 kts | 167° |
| 2026-04-22 18:40 | 45.43565 | 46.97000 | 22952 ft | 264 kts | 167° |
| 2026-04-22 18:40 | 45.41911 | 46.98134 | 22962 ft | 264 kts | 167° |
| 2026-04-22 18:40 | 45.40255 | 46.99269 | 22959 ft | 264 kts | 167° |
| 2026-04-22 18:41 | 45.38618 | 47.00391 | 22952 ft | 264 kts | 167° |
| 2026-04-22 18:41 | 45.36963 | 47.01524 | 22954 ft | 264 kts | 167° |
| 2026-04-22 18:41 | 45.35304 | 47.02659 | 22951 ft | 264 kts | 167° |
| 2026-04-22 18:41 | 45.33649 | 47.03791 | 22954 ft | 264 kts | 167° |
| 2026-04-22 18:42 | 45.31984 | 47.04928 | 22960 ft | 264 kts | 167° |
| 2026-04-22 18:42 | 45.30330 | 47.06057 | 22950 ft | 264 kts | 167° |
| 2026-04-22 18:42 | 45.28672 | 47.07189 | 22956 ft | 264 kts | 167° |
| 2026-04-22 18:42 | 45.27012 | 47.08321 | 22950 ft | 264 kts | 167° |
| 2026-04-22 18:43 | 45.25357 | 47.09449 | 22956 ft | 264 kts | 167° |
| 2026-04-22 18:43 | 45.23722 | 47.10562 | 22954 ft | 263 kts | 167° |
| 2026-04-22 18:43 | 45.22066 | 47.11689 | 22949 ft | 263 kts | 166° |
| 2026-04-22 18:43 | 45.20409 | 47.12816 | 22952 ft | 263 kts | 166° |
| 2026-04-22 18:44 | 45.18755 | 47.13939 | 22948 ft | 264 kts | 166° |
| 2026-04-22 18:44 | 45.17097 | 47.15066 | 22952 ft | 264 kts | 166° |
| 2026-04-22 18:44 | 45.15459 | 47.16178 | 22951 ft | 264 kts | 166° |
| 2026-04-22 18:44 | 45.13805 | 47.17300 | 22949 ft | 264 kts | 166° |
| 2026-04-22 18:45 | 45.12151 | 47.18421 | 22951 ft | 264 kts | 166° |
| 2026-04-22 18:45 | 45.10489 | 47.19547 | 22949 ft | 264 kts | 166° |
| 2026-04-22 18:45 | 45.08833 | 47.20669 | 22951 ft | 263 kts | 166° |
| 2026-04-22 18:45 | 45.07178 | 47.21788 | 22947 ft | 263 kts | 166° |
| 2026-04-22 18:46 | 45.05522 | 47.22908 | 22951 ft | 264 kts | 166° |
| 2026-04-22 18:46 | 45.03866 | 47.24028 | 22950 ft | 264 kts | 166° |
| 2026-04-22 18:46 | 45.02213 | 47.25149 | 22951 ft | 264 kts | 165° |
| 2026-04-22 18:46 | 45.00558 | 47.26271 | 22949 ft | 264 kts | 165° |
| 2026-04-22 18:47 | 44.98907 | 47.27389 | 22948 ft | 263 kts | 165° |
| 2026-04-22 18:47 | 44.97253 | 47.28508 | 22951 ft | 263 kts | 165° |
| 2026-04-22 18:47 | 44.95597 | 47.29628 | 22951 ft | 263 kts | 165° |
| 2026-04-22 18:47 | 44.93941 | 47.30747 | 22951 ft | 263 kts | 165° |
| 2026-04-22 18:48 | 44.92302 | 47.31853 | 22953 ft | 263 kts | 165° |
| 2026-04-22 18:48 | 44.90653 | 47.32966 | 22952 ft | 263 kts | 165° |
| 2026-04-22 18:48 | 44.88997 | 47.34083 | 22948 ft | 263 kts | 165° |
| 2026-04-22 18:48 | 44.87345 | 47.35196 | 22949 ft | 263 kts | 165° |
| 2026-04-22 18:49 | 44.85693 | 47.36309 | 22949 ft | 263 kts | 165° |
| 2026-04-22 18:49 | 44.84039 | 47.37422 | 22948 ft | 263 kts | 164° |
| 2026-04-22 18:49 | 44.82387 | 47.38533 | 22943 ft | 263 kts | 164° |
| 2026-04-22 18:49 | 44.80738 | 47.39642 | 22947 ft | 263 kts | 164° |
| 2026-04-22 18:50 | 44.79089 | 47.40749 | 22948 ft | 262 kts | 164° |
| 2026-04-22 18:50 | 44.77437 | 47.41858 | 22945 ft | 262 kts | 164° |
| 2026-04-22 18:50 | 44.75806 | 47.42953 | 22947 ft | 262 kts | 164° |
| 2026-04-22 18:50 | 44.74163 | 47.44054 | 22946 ft | 261 kts | 164° |
| 2026-04-22 18:51 | 44.72524 | 47.45153 | 22945 ft | 261 kts | 164° |
| 2026-04-22 18:51 | 44.70882 | 47.46252 | 22944 ft | 261 kts | 164° |
| 2026-04-22 18:51 | 44.69240 | 47.47351 | 22948 ft | 261 kts | 164° |
| 2026-04-22 18:51 | 44.67599 | 47.48448 | 22945 ft | 261 kts | 164° |
| 2026-04-22 18:52 | 44.65958 | 47.49545 | 22939 ft | 261 kts | 164° |
| 2026-04-22 18:52 | 44.64320 | 47.50640 | 22943 ft | 261 kts | 164° |
| 2026-04-22 18:52 | 44.62682 | 47.51733 | 22942 ft | 261 kts | 164° |
| 2026-04-22 18:52 | 44.61043 | 47.52827 | 22941 ft | 261 kts | 164° |
| 2026-04-22 18:53 | 44.59405 | 47.53918 | 22937 ft | 260 kts | 164° |
| 2026-04-22 18:53 | 44.57789 | 47.54995 | 22947 ft | 260 kts | 164° |
| 2026-04-22 18:53 | 44.56153 | 47.56084 | 22937 ft | 260 kts | 163° |
| 2026-04-22 18:53 | 44.54515 | 47.57174 | 22942 ft | 260 kts | 163° |
| 2026-04-22 18:54 | 44.52877 | 47.58264 | 22939 ft | 260 kts | 163° |
| 2026-04-22 18:54 | 44.51241 | 47.59351 | 22939 ft | 260 kts | 163° |
| 2026-04-22 18:54 | 44.49605 | 47.60440 | 22941 ft | 260 kts | 163° |
| 2026-04-22 18:54 | 44.47970 | 47.61535 | 22939 ft | 260 kts | 163° |
| 2026-04-22 18:55 | 44.46336 | 47.62628 | 22943 ft | 260 kts | 163° |
| 2026-04-22 18:55 | 44.44704 | 47.63717 | 22942 ft | 260 kts | 163° |
| 2026-04-22 18:55 | 44.43068 | 47.64808 | 22942 ft | 260 kts | 163° |
| 2026-04-22 18:55 | 44.41425 | 47.65903 | 22942 ft | 260 kts | 163° |
| 2026-04-22 18:56 | 44.39785 | 47.66995 | 22942 ft | 260 kts | 163° |
| 2026-04-22 18:56 | 44.38149 | 47.68084 | 22936 ft | 260 kts | 163° |
| 2026-04-22 18:56 | 44.36514 | 47.69172 | 22944 ft | 260 kts | 163° |
| 2026-04-22 18:56 | 44.34900 | 47.70245 | 22938 ft | 260 kts | 163° |
| 2026-04-22 18:57 | 44.33244 | 47.71346 | 22941 ft | 260 kts | 163° |
| 2026-04-22 18:57 | 44.31627 | 47.72420 | 22944 ft | 260 kts | 163° |
| 2026-04-22 18:57 | 44.29987 | 47.73508 | 22940 ft | 261 kts | 163° |
| 2026-04-22 18:57 | 44.28349 | 47.74595 | 22942 ft | 261 kts | 163° |
| 2026-04-22 18:58 | 44.26709 | 47.75682 | 22942 ft | 261 kts | 163° |
| 2026-04-22 18:58 | 44.25067 | 47.76769 | 22942 ft | 261 kts | 163° |
| 2026-04-22 18:58 | 44.23427 | 47.77855 | 22938 ft | 261 kts | 163° |
| 2026-04-22 18:58 | 44.21784 | 47.78942 | 22940 ft | 261 kts | 163° |
| 2026-04-22 18:59 | 44.20141 | 47.80028 | 22944 ft | 261 kts | 163° |
| 2026-04-22 18:59 | 44.18496 | 47.81116 | 22943 ft | 261 kts | 163° |
| 2026-04-22 18:59 | 44.16851 | 47.82202 | 22938 ft | 262 kts | 163° |
| 2026-04-22 18:59 | 44.15206 | 47.83288 | 22942 ft | 262 kts | 163° |
| 2026-04-22 19:00 | 44.13559 | 47.84374 | 22940 ft | 262 kts | 163° |
| 2026-04-22 19:00 | 44.11916 | 47.85457 | 22942 ft | 262 kts | 163° |
| 2026-04-22 19:00 | 44.10270 | 47.86541 | 22944 ft | 262 kts | 163° |
| 2026-04-22 19:00 | 44.08645 | 47.87611 | 22941 ft | 262 kts | 163° |
| 2026-04-22 19:01 | 44.06997 | 47.88695 | 22942 ft | 262 kts | 163° |
| 2026-04-22 19:01 | 44.05346 | 47.89781 | 22954 ft | 262 kts | 163° |
| 2026-04-22 19:01 | 44.03699 | 47.90863 | 22945 ft | 262 kts | 163° |
| 2026-04-22 19:01 | 44.02048 | 47.91947 | 22944 ft | 262 kts | 163° |
| 2026-04-22 19:02 | 44.00400 | 47.93029 | 22943 ft | 262 kts | 163° |
| 2026-04-22 19:02 | 43.98751 | 47.94111 | 22944 ft | 262 kts | 163° |
| 2026-04-22 19:02 | 43.97099 | 47.95194 | 22941 ft | 262 kts | 163° |
| 2026-04-22 19:02 | 43.95451 | 47.96273 | 22938 ft | 262 kts | 163° |
| 2026-04-22 19:03 | 43.93822 | 47.97340 | 22942 ft | 262 kts | 163° |
| 2026-04-22 19:03 | 43.92168 | 47.98422 | 22939 ft | 262 kts | 163° |
| 2026-04-22 19:03 | 43.90521 | 47.99499 | 22941 ft | 262 kts | 162° |
| 2026-04-22 19:03 | 43.88875 | 48.00575 | 22940 ft | 261 kts | 163° |
| 2026-04-22 19:04 | 43.87231 | 48.01649 | 22941 ft | 261 kts | 163° |
| 2026-04-22 19:04 | 43.85585 | 48.02723 | 22942 ft | 261 kts | 163° |
| 2026-04-22 19:04 | 43.83941 | 48.03795 | 22936 ft | 261 kts | 163° |
| 2026-04-22 19:04 | 43.82299 | 48.04866 | 22939 ft | 261 kts | 163° |
| 2026-04-22 19:05 | 43.80657 | 48.05935 | 22943 ft | 261 kts | 163° |
| 2026-04-22 19:05 | 43.79038 | 48.06990 | 22940 ft | 261 kts | 163° |
| 2026-04-22 19:05 | 43.77393 | 48.08060 | 22937 ft | 260 kts | 163° |
| 2026-04-22 19:05 | 43.75749 | 48.09129 | 22937 ft | 260 kts | 163° |
| 2026-04-22 19:06 | 43.74667 | 48.09832 | 22938 ft | 260 kts | 163° |
| 2026-04-22 19:06 | 43.73029 | 48.10897 | 22938 ft | 260 kts | 163° |
| 2026-04-22 19:06 | 43.71389 | 48.11961 | 22938 ft | 260 kts | 162° |
| 2026-04-22 19:07 | 43.68097 | 48.14096 | 22936 ft | 260 kts | 163° |
| 2026-04-22 19:07 | 43.66457 | 48.15160 | 22938 ft | 260 kts | 162° |
| 2026-04-22 19:07 | 43.64839 | 48.16207 | 22939 ft | 260 kts | 162° |
| 2026-04-22 19:07 | 43.63201 | 48.17268 | 22938 ft | 260 kts | 162° |
| 2026-04-22 19:08 | 43.61559 | 48.18330 | 22938 ft | 260 kts | 162° |
| 2026-04-22 19:08 | 43.59916 | 48.19392 | 22936 ft | 260 kts | 162° |
| 2026-04-22 19:08 | 43.58272 | 48.20454 | 22935 ft | 260 kts | 162° |
| 2026-04-22 19:08 | 43.56631 | 48.21514 | 22936 ft | 260 kts | 162° |
| 2026-04-22 19:09 | 43.54993 | 48.22571 | 22936 ft | 260 kts | 162° |
| 2026-04-22 19:09 | 43.53353 | 48.23629 | 22934 ft | 261 kts | 162° |
| 2026-04-22 19:09 | 43.51707 | 48.24689 | 22936 ft | 261 kts | 162° |
| 2026-04-22 19:09 | 43.50079 | 48.25738 | 22936 ft | 262 kts | 162° |
| 2026-04-22 19:10 | 43.48405 | 48.26816 | 22929 ft | 263 kts | 162° |
| 2026-04-22 19:10 | 43.46768 | 48.27869 | 22927 ft | 263 kts | 162° |
| 2026-04-22 19:10 | 43.45105 | 48.28939 | 22932 ft | 264 kts | 162° |
| 2026-04-22 19:10 | 43.43443 | 48.30007 | 22930 ft | 264 kts | 162° |
| 2026-04-22 19:11 | 43.41778 | 48.31076 | 22931 ft | 264 kts | 162° |
| 2026-04-22 19:11 | 43.40108 | 48.32148 | 22927 ft | 265 kts | 162° |
| 2026-04-22 19:11 | 43.38436 | 48.33220 | 22929 ft | 265 kts | 162° |
| 2026-04-22 19:11 | 43.36762 | 48.34293 | 22930 ft | 265 kts | 162° |
| 2026-04-22 19:12 | 43.35090 | 48.35365 | 22929 ft | 265 kts | 162° |
| 2026-04-22 19:12 | 43.33416 | 48.36436 | 22930 ft | 266 kts | 162° |
| 2026-04-22 19:12 | 43.31739 | 48.37510 | 22930 ft | 266 kts | 162° |
| 2026-04-22 19:12 | 43.30063 | 48.38581 | 22931 ft | 266 kts | 162° |
| 2026-04-22 19:13 | 43.28573 | 48.39534 | 22930 ft | 266 kts | 162° |
| 2026-04-22 19:13 | 43.26894 | 48.40606 | 22928 ft | 266 kts | 162° |
| 2026-04-22 19:13 | 43.25212 | 48.41680 | 22928 ft | 266 kts | 162° |
| 2026-04-22 19:13 | 43.23532 | 48.42753 | 22930 ft | 266 kts | 161° |
| 2026-04-22 19:14 | 43.21929 | 48.44068 | 22929 ft | 269 kts | 153° |
| 2026-04-22 19:14 | 43.20365 | 48.45484 | 22927 ft | 270 kts | 153° |
| 2026-04-22 19:14 | 43.18793 | 48.46891 | 22925 ft | 270 kts | 153° |
| 2026-04-22 19:14 | 43.17215 | 48.48292 | 22926 ft | 270 kts | 153° |
| 2026-04-22 19:15 | 43.15636 | 48.49697 | 22927 ft | 271 kts | 153° |
| 2026-04-22 19:15 | 43.14058 | 48.51103 | 22928 ft | 271 kts | 153° |
| 2026-04-22 19:15 | 43.12477 | 48.52512 | 22928 ft | 271 kts | 153° |
| 2026-04-22 19:15 | 43.10898 | 48.53916 | 22927 ft | 271 kts | 153° |
| 2026-04-22 19:16 | 43.09317 | 48.55320 | 22928 ft | 271 kts | 152° |
| 2026-04-22 19:16 | 43.07737 | 48.56724 | 22926 ft | 271 kts | 152° |
| 2026-04-22 19:16 | 43.06171 | 48.58115 | 22930 ft | 271 kts | 152° |
| 2026-04-22 19:16 | 43.04591 | 48.59517 | 22932 ft | 271 kts | 152° |
| 2026-04-22 19:17 | 43.03009 | 48.60919 | 22933 ft | 271 kts | 152° |
| 2026-04-22 19:17 | 43.01428 | 48.62320 | 22923 ft | 271 kts | 152° |
| 2026-04-22 19:17 | 42.99849 | 48.63719 | 22926 ft | 271 kts | 152° |
| 2026-04-22 19:17 | 42.98269 | 48.65118 | 22923 ft | 271 kts | 152° |
| 2026-04-22 19:18 | 42.96689 | 48.66515 | 22927 ft | 270 kts | 152° |
| 2026-04-22 19:18 | 42.95111 | 48.67910 | 22925 ft | 270 kts | 152° |
| 2026-04-22 19:18 | 42.93533 | 48.69304 | 22927 ft | 270 kts | 152° |
| 2026-04-22 19:18 | 42.91954 | 48.70698 | 22927 ft | 269 kts | 152° |
| 2026-04-22 19:19 | 42.90384 | 48.72083 | 22928 ft | 269 kts | 152° |
| 2026-04-22 19:19 | 42.88815 | 48.73467 | 22924 ft | 268 kts | 152° |
| 2026-04-22 19:19 | 42.87247 | 48.74848 | 22927 ft | 268 kts | 152° |
| 2026-04-22 19:19 | 42.85682 | 48.76227 | 22926 ft | 267 kts | 152° |
| 2026-04-22 19:20 | 42.84120 | 48.77601 | 22925 ft | 267 kts | 151° |
| 2026-04-22 19:20 | 42.82561 | 48.78973 | 22923 ft | 267 kts | 151° |
| 2026-04-22 19:20 | 42.81023 | 48.80325 | 22925 ft | 267 kts | 151° |
| 2026-04-22 19:20 | 42.79463 | 48.81695 | 22922 ft | 266 kts | 151° |
| 2026-04-22 19:21 | 42.77906 | 48.83062 | 22926 ft | 266 kts | 151° |
| 2026-04-22 19:21 | 42.76351 | 48.84427 | 22922 ft | 266 kts | 151° |
| 2026-04-22 19:21 | 42.74782 | 48.85757 | 22927 ft | 264 kts | 153° |
| 2026-04-22 19:21 | 42.73210 | 48.87063 | 22927 ft | 265 kts | 152° |
| 2026-04-22 19:22 | 42.71650 | 48.88392 | 22928 ft | 265 kts | 152° |
| 2026-04-22 19:22 | 42.70083 | 48.89706 | 22928 ft | 265 kts | 152° |
| 2026-04-22 19:22 | 42.68510 | 48.91010 | 22922 ft | 265 kts | 152° |
| 2026-04-22 19:22 | 42.66943 | 48.92312 | 22926 ft | 265 kts | 152° |
| 2026-04-22 19:23 | 42.65375 | 48.93619 | 22933 ft | 265 kts | 152° |
| 2026-04-22 19:23 | 42.63801 | 48.94930 | 22927 ft | 265 kts | 152° |
| 2026-04-22 19:23 | 42.62229 | 48.96237 | 22921 ft | 265 kts | 152° |
| 2026-04-22 19:23 | 42.60656 | 48.97544 | 22922 ft | 265 kts | 152° |
| 2026-04-22 19:24 | 42.59086 | 48.98848 | 22931 ft | 265 kts | 152° |
| 2026-04-22 19:24 | 42.57514 | 49.00153 | 22923 ft | 265 kts | 152° |
| 2026-04-22 19:24 | 42.55944 | 49.01456 | 22928 ft | 265 kts | 152° |
| 2026-04-22 19:24 | 42.54375 | 49.02757 | 22926 ft | 265 kts | 152° |
| 2026-04-22 19:25 | 42.52818 | 49.04047 | 22918 ft | 265 kts | 152° |
| 2026-04-22 19:25 | 42.51243 | 49.05352 | 22921 ft | 264 kts | 152° |
| 2026-04-22 19:25 | 42.49674 | 49.06650 | 22920 ft | 265 kts | 152° |
| 2026-04-22 19:25 | 42.48100 | 49.07952 | 22929 ft | 265 kts | 152° |
| 2026-04-22 19:26 | 42.46529 | 49.09250 | 22923 ft | 265 kts | 152° |
| 2026-04-22 19:26 | 42.44954 | 49.10552 | 22918 ft | 265 kts | 152° |
| 2026-04-22 19:26 | 42.43399 | 49.11836 | 22929 ft | 265 kts | 152° |
| 2026-04-22 19:26 | 42.41823 | 49.13137 | 22932 ft | 265 kts | 152° |
| 2026-04-22 19:27 | 42.40251 | 49.14433 | 22922 ft | 265 kts | 152° |
| 2026-04-22 19:27 | 42.38678 | 49.15730 | 22928 ft | 265 kts | 152° |
| 2026-04-22 19:27 | 42.37098 | 49.17031 | 22924 ft | 265 kts | 152° |
| 2026-04-22 19:27 | 42.35524 | 49.18327 | 22917 ft | 265 kts | 152° |
| 2026-04-22 19:28 | 42.33950 | 49.19622 | 22914 ft | 265 kts | 152° |
| 2026-04-22 19:28 | 42.32371 | 49.20920 | 22923 ft | 265 kts | 152° |
| 2026-04-22 19:28 | 42.30814 | 49.22200 | 22918 ft | 265 kts | 152° |
| 2026-04-22 19:28 | 42.29217 | 49.23511 | 22911 ft | 265 kts | 152° |
| 2026-04-22 19:29 | 42.27662 | 49.24788 | 22918 ft | 265 kts | 152° |
| 2026-04-22 19:29 | 42.26085 | 49.26082 | 22914 ft | 265 kts | 152° |
| 2026-04-22 19:29 | 42.24504 | 49.27378 | 22911 ft | 265 kts | 152° |
| 2026-04-22 19:29 | 42.22887 | 49.28542 | 22913 ft | 261 kts | 163° |
| 2026-04-22 19:30 | 42.21729 | 49.29070 | 22919 ft | 260 kts | 166° |
| 2026-04-22 19:30 | 42.19450 | 49.30083 | 22912 ft | 260 kts | 166° |
| 2026-04-22 19:30 | 42.17729 | 49.30858 | 22913 ft | 261 kts | 166° |
| 2026-04-22 19:30 | 42.16008 | 49.31635 | 22918 ft | 261 kts | 166° |
| 2026-04-22 19:31 | 42.14282 | 49.32410 | 22912 ft | 261 kts | 166° |
| 2026-04-22 19:31 | 42.12556 | 49.33184 | 22909 ft | 261 kts | 166° |
| 2026-04-22 19:31 | 42.10828 | 49.33959 | 22908 ft | 262 kts | 166° |
| 2026-04-22 19:31 | 42.09101 | 49.34734 | 22908 ft | 262 kts | 166° |
| 2026-04-22 19:32 | 42.07375 | 49.35508 | 22907 ft | 262 kts | 166° |
| 2026-04-22 19:32 | 42.05666 | 49.36273 | 22907 ft | 262 kts | 166° |
| 2026-04-22 19:32 | 42.03939 | 49.37046 | 22907 ft | 262 kts | 166° |
| 2026-04-22 19:32 | 42.02209 | 49.37820 | 22901 ft | 262 kts | 166° |
| 2026-04-22 19:33 | 42.00479 | 49.38594 | 22901 ft | 262 kts | 166° |
| 2026-04-22 19:33 | 41.98749 | 49.39367 | 22905 ft | 262 kts | 166° |
| 2026-04-22 19:33 | 41.97020 | 49.40139 | 22903 ft | 262 kts | 167° |
| 2026-04-22 19:33 | 41.95287 | 49.40913 | 22903 ft | 262 kts | 167° |
| 2026-04-22 19:34 | 41.93552 | 49.41687 | 22902 ft | 262 kts | 167° |
| 2026-04-22 19:34 | 41.91819 | 49.42460 | 22902 ft | 262 kts | 167° |
| 2026-04-22 19:34 | 41.90085 | 49.43233 | 22899 ft | 262 kts | 167° |
| 2026-04-22 19:34 | 41.88354 | 49.44004 | 22900 ft | 262 kts | 167° |
| 2026-04-22 19:35 | 41.86619 | 49.44776 | 22895 ft | 263 kts | 167° |
| 2026-04-22 19:35 | 41.84906 | 49.45538 | 22893 ft | 262 kts | 167° |
| 2026-04-22 19:35 | 41.83733 | 49.46060 | 22894 ft | 262 kts | 167° |
| 2026-04-22 19:35 | 41.81436 | 49.47081 | 22894 ft | 263 kts | 167° |
| 2026-04-22 19:36 | 41.79701 | 49.47852 | 22896 ft | 263 kts | 167° |
| 2026-04-22 19:36 | 41.77966 | 49.48622 | 22888 ft | 262 kts | 167° |
| 2026-04-22 19:36 | 41.76236 | 49.49390 | 22890 ft | 262 kts | 167° |
| 2026-04-22 19:36 | 41.74500 | 49.50159 | 22891 ft | 262 kts | 167° |
| 2026-04-22 19:37 | 41.72767 | 49.50927 | 22888 ft | 263 kts | 167° |
| 2026-04-22 19:37 | 41.71002 | 49.51706 | 22537 ft | 269 kts | 167° |
| 2026-04-22 19:37 | 41.69218 | 49.52494 | 22189 ft | 270 kts | 166° |
| 2026-04-22 19:37 | 41.67433 | 49.53284 | 21844 ft | 270 kts | 166° |
| 2026-04-22 19:38 | 41.65650 | 49.54073 | 21501 ft | 270 kts | 166° |
| 2026-04-22 19:38 | 41.63868 | 49.54861 | 21158 ft | 270 kts | 166° |
| 2026-04-22 19:38 | 41.62087 | 49.55648 | 20821 ft | 269 kts | 166° |
| 2026-04-22 19:38 | 41.60313 | 49.56430 | 20491 ft | 268 kts | 166° |
| 2026-04-22 19:39 | 41.58539 | 49.57213 | 20164 ft | 268 kts | 166° |
| 2026-04-22 19:39 | 41.56796 | 49.57981 | 19839 ft | 267 kts | 166° |
| 2026-04-22 19:39 | 41.55034 | 49.58758 | 19516 ft | 266 kts | 166° |
| 2026-04-22 19:39 | 41.53278 | 49.59531 | 19200 ft | 265 kts | 166° |
| 2026-04-22 19:40 | 41.51520 | 49.60304 | 18887 ft | 267 kts | 166° |
| 2026-04-22 19:40 | 41.49754 | 49.61081 | 18572 ft | 268 kts | 166° |
| 2026-04-22 19:40 | 41.47979 | 49.61862 | 18265 ft | 268 kts | 166° |
| 2026-04-22 19:40 | 41.46206 | 49.62641 | 17924 ft | 268 kts | 165° |
| 2026-04-22 19:41 | 41.44436 | 49.63418 | 17575 ft | 267 kts | 165° |
| 2026-04-22 19:41 | 41.42669 | 49.64194 | 17230 ft | 267 kts | 165° |
| 2026-04-22 19:41 | 41.40903 | 49.64968 | 16863 ft | 267 kts | 165° |
| 2026-04-22 19:41 | 41.39131 | 49.65744 | 16493 ft | 267 kts | 165° |
| 2026-04-22 19:42 | 41.37368 | 49.66516 | 16136 ft | 267 kts | 165° |
| 2026-04-22 19:42 | 41.35602 | 49.67289 | 15780 ft | 268 kts | 165° |
| 2026-04-22 19:42 | 41.33848 | 49.68056 | 15433 ft | 268 kts | 165° |
| 2026-04-22 19:42 | 41.32071 | 49.68833 | 15082 ft | 268 kts | 165° |
| 2026-04-22 19:43 | 41.28523 | 49.70384 | 14402 ft | 268 kts | 165° |
| 2026-04-22 19:43 | 41.26750 | 49.71157 | 14068 ft | 268 kts | 165° |
| 2026-04-22 19:43 | 41.24978 | 49.71931 | 13730 ft | 268 kts | 165° |
| 2026-04-22 19:44 | 41.23209 | 49.72702 | 13366 ft | 268 kts | 165° |
| 2026-04-22 19:44 | 41.21434 | 49.73475 | 12992 ft | 268 kts | 165° |
| 2026-04-22 19:44 | 41.19662 | 49.74247 | 12629 ft | 268 kts | 165° |
| 2026-04-22 19:44 | 41.17902 | 49.75014 | 12271 ft | 268 kts | 164° |
| 2026-04-22 19:45 | 41.16128 | 49.75786 | 11914 ft | 268 kts | 165° |
| 2026-04-22 19:45 | 41.14346 | 49.76563 | 11557 ft | 269 kts | 164° |
| 2026-04-22 19:45 | 41.12566 | 49.77335 | 11206 ft | 269 kts | 164° |
| 2026-04-22 19:45 | 41.10854 | 49.78324 | 10887 ft | 270 kts | 148° |
| 2026-04-22 19:46 | 41.09452 | 49.79855 | 10874 ft | 260 kts | 136° |
| 2026-04-22 19:46 | 41.08171 | 49.81540 | 10876 ft | 254 kts | 136° |
| 2026-04-22 19:46 | 41.06918 | 49.83175 | 10873 ft | 252 kts | 136° |
| 2026-04-22 19:46 | 41.05674 | 49.84795 | 10872 ft | 250 kts | 136° |
| 2026-04-22 19:47 | 41.04438 | 49.86411 | 10873 ft | 249 kts | 137° |
| 2026-04-22 19:47 | 41.03206 | 49.88022 | 10870 ft | 249 kts | 136° |
| 2026-04-22 19:47 | 41.02390 | 49.89087 | 10871 ft | 248 kts | 137° |
| 2026-04-22 19:47 | 41.00757 | 49.91218 | 10873 ft | 248 kts | 137° |
| 2026-04-22 19:48 | 40.99517 | 49.92836 | 10717 ft | 255 kts | 137° |
| 2026-04-22 19:48 | 40.98234 | 49.94508 | 10468 ft | 262 kts | 137° |
| 2026-04-22 19:48 | 40.96923 | 49.96207 | 10231 ft | 265 kts | 138° |
| 2026-04-22 19:48 | 40.95556 | 49.97853 | 9997 ft | 267 kts | 138° |
| 2026-04-22 19:49 | 40.94200 | 49.99523 | 9825 ft | 266 kts | 138° |
| 2026-04-22 19:49 | 40.92848 | 50.01177 | 9649 ft | 264 kts | 138° |
| 2026-04-22 19:49 | 40.91497 | 50.02813 | 9464 ft | 262 kts | 138° |
| 2026-04-22 19:49 | 40.90148 | 50.04430 | 9282 ft | 260 kts | 140° |
| 2026-04-22 19:50 | 40.88628 | 50.05638 | 9085 ft | 258 kts | 158° |
| 2026-04-22 19:50 | 40.86907 | 50.06224 | 8898 ft | 255 kts | 176° |
| 2026-04-22 19:50 | 40.85258 | 50.06274 | 8728 ft | 252 kts | 182° |
| 2026-04-22 19:50 | 40.83503 | 50.06261 | 8540 ft | 252 kts | 183° |
| 2026-04-22 19:51 | 40.81739 | 50.06253 | 8231 ft | 255 kts | 183° |
| 2026-04-22 19:51 | 40.79964 | 50.06248 | 7857 ft | 256 kts | 182° |
| 2026-04-22 19:51 | 40.78184 | 50.06249 | 7484 ft | 256 kts | 182° |
| 2026-04-22 19:51 | 40.76399 | 50.06235 | 7124 ft | 256 kts | 182° |
| 2026-04-22 19:52 | 40.74639 | 50.06201 | 6768 ft | 255 kts | 182° |
| 2026-04-22 19:52 | 40.72866 | 50.06172 | 6407 ft | 255 kts | 181° |
| 2026-04-22 19:52 | 40.71091 | 50.06151 | 6036 ft | 254 kts | 182° |
| 2026-04-22 19:52 | 40.69338 | 50.06129 | 5578 ft | 246 kts | 183° |
| 2026-04-22 19:53 | 40.67687 | 50.06108 | 5085 ft | 228 kts | 184° |
| 2026-04-22 19:53 | 40.66132 | 50.06089 | 4469 ft | 219 kts | 185° |
| 2026-04-22 19:53 | 40.65138 | 50.06076 | 4049 ft | 213 kts | 185° |
| 2026-04-22 19:53 | 40.63666 | 50.06057 | 3428 ft | 212 kts | 184° |
| 2026-04-22 19:54 | 40.62181 | 50.06113 | 2808 ft | 214 kts | 184° |
| 2026-04-22 19:54 | 40.60690 | 50.06115 | 2185 ft | 214 kts | 185° |
| 2026-04-22 19:54 | 40.59260 | 50.06116 | 2000 ft | 189 kts | 184° |
| 2026-04-22 19:54 | 40.58050 | 50.06143 | 1900 ft | 160 kts | 185° |
| 2026-04-22 19:55 | 40.57003 | 50.06153 | 1712 ft | 143 kts | 186° |
| 2026-04-22 19:55 | 40.56058 | 50.06171 | 1534 ft | 128 kts | 186° |
| 2026-04-22 19:55 | 40.55262 | 50.06182 | 1372 ft | 102 kts | 187° |
| 2026-04-22 19:55 | 40.54610 | 50.06194 | 1239 ft | 86 kts | 188° |
| 2026-04-22 19:56 | 40.54008 | 50.06200 | 1123 ft | 90 kts | 186° |
| 2026-04-22 19:56 | 40.53368 | 50.06211 | 1006 ft | 96 kts | 185° |
| 2026-04-22 19:56 | 40.52672 | 50.06221 | 867 ft | 104 kts | 181° |
| 2026-04-22 19:56 | 40.51979 | 50.06233 | 730 ft | 93 kts | 180° |
| 2026-04-22 19:57 | 40.51343 | 50.06241 | 609 ft | 91 kts | 180° |
| 2026-04-22 19:57 | 40.50708 | 50.06252 | 477 ft | 91 kts | 178° |
| 2026-04-22 19:57 | 40.50063 | 50.06273 | 359 ft | 94 kts | 177° |
| 2026-04-22 19:57 | 40.49393 | 50.06281 | 244 ft | 97 kts | 179° |
| 2026-04-22 19:58 | 40.48693 | 50.06281 | 101 ft | 103 kts | 179° |
| 2026-04-22 19:58 | 40.47978 | 50.06290 | 31 ft | 99 kts | 178° |
| 2026-04-22 19:58 | 40.47357 | 50.06314 | 7 ft | 78 kts | 179° |
| 2026-04-22 19:58 | 40.47044 | 50.06316 | 8 ft | 30 kts | 181° |
| 2026-04-22 19:59 | 40.46843 | 50.06315 | 9 ft | 28 kts | 180° |
| 2026-04-22 20:00 | 40.46582 | 50.06168 | 11 ft | 0 kts | 269° |
| 2026-04-22 20:02 | 40.46591 | 50.06124 | 11 ft | 10 kts | 303° |
| 2026-04-22 20:02 | 40.46692 | 50.06092 | 11 ft | 21 kts | 357° |
| 2026-04-22 20:02 | 40.46865 | 50.06089 | 11 ft | 28 kts | 358° |
| 2026-04-22 20:03 | 40.46954 | 50.06085 | 11 ft | 3 kts | 322° |
| 2026-04-22 20:03 | 40.46949 | 50.06040 | 11 ft | 7 kts | 246° |
| 2026-04-22 20:03 | 40.46944 | 50.05967 | 11 ft | 9 kts | 268° |
| 2026-04-22 20:03 | 40.46942 | 50.05877 | 11 ft | 11 kts | 268° |
| 2026-04-22 20:04 | 40.46939 | 50.05772 | 11 ft | 12 kts | 268° |
| 2026-04-22 20:04 | 40.46934 | 50.05630 | 11 ft | 19 kts | 266° |
| 2026-04-22 20:04 | 40.46929 | 50.05423 | 11 ft | 24 kts | 268° |
| 2026-04-22 20:04 | 40.46924 | 50.05210 | 11 ft | 23 kts | 269° |
| 2026-04-22 20:05 | 40.46919 | 50.05036 | 11 ft | 16 kts | 268° |
| 2026-04-22 20:05 | 40.46905 | 50.04935 | 11 ft | 6 kts | 222° |
| 2026-04-22 20:05 | 40.46866 | 50.04923 | 11 ft | 6 kts | 146° |
| 2026-04-22 20:05 | 40.46859 | 50.04948 | 11 ft | 0 kts | 87° |
| 2026-04-22 20:06 | 40.46860 | 50.04959 | 11 ft | 3 kts | 87° |
| 2026-04-22 20:06 | 40.46860 | 50.04961 | 11 ft | 3 kts | 89° |
| 2026-04-22 20:06 | 40.46860 | 50.04965 | 11 ft | 0 kts | 90° |
| 2026-04-22 20:07 | 40.46860 | 50.04970 | 11 ft | 2 kts | 84° |
| 2026-04-22 20:07 | 40.46860 | 50.04978 | 11 ft | 0 kts | 87° |